sensor_id;sensor_type;location;lat;lon;timestamp;P1;durP1;ratioP1;P2;durP2;ratioP2
20619;SDS011;10469;42.720;23.252;2023-03-21T00:00:14;12.35;;;5.68;;
20619;SDS011;10469;42.720;23.252;2023-03-21T00:02:40;11.65;;;6.18;;
20619;SDS011;10469;42.720;23.252;2023-03-21T00:05:06;10.65;;;5.35;;
20619;SDS011;10469;42.720;23.252;2023-03-21T00:07:32;5.75;;;4.45;;
20619;SDS011;10469;42.720;23.252;2023-03-21T00:09:57;13.18;;;5.13;;
20619;SDS011;10469;42.720;23.252;2023-03-21T00:12:23;10.85;;;5.40;;
20619;SDS011;10469;42.720;23.252;2023-03-21T00:14:48;6.68;;;4.53;;
20619;SDS011;10469;42.720;23.252;2023-03-21T00:17:14;10.32;;;6.22;;
20619;SDS011;10469;42.720;23.252;2023-03-21T00:19:40;9.07;;;4.95;;
20619;SDS011;10469;42.720;23.252;2023-03-21T00:22:06;9.13;;;4.72;;
20619;SDS011;10469;42.720;23.252;2023-03-21T00:24:32;9.13;;;5.93;;
20619;SDS011;10469;42.720;23.252;2023-03-21T00:26:58;7.75;;;4.60;;
20619;SDS011;10469;42.720;23.252;2023-03-21T00:29:24;9.30;;;5.65;;
20619;SDS011;10469;42.720;23.252;2023-03-21T00:31:49;7.68;;;4.55;;
20619;SDS011;10469;42.720;23.252;2023-03-21T00:34:15;6.28;;;4.28;;
20619;SDS011;10469;42.720;23.252;2023-03-21T00:36:41;15.18;;;5.72;;
20619;SDS011;10469;42.720;23.252;2023-03-21T00:39:06;6.88;;;4.45;;
20619;SDS011;10469;42.720;23.252;2023-03-21T00:41:32;17.65;;;5.85;;
20619;SDS011;10469;42.720;23.252;2023-03-21T00:43:58;10.38;;;4.75;;
20619;SDS011;10469;42.720;23.252;2023-03-21T00:46:23;7.43;;;4.45;;
20619;SDS011;10469;42.720;23.252;2023-03-21T00:48:49;14.63;;;5.55;;
20619;SDS011;10469;42.720;23.252;2023-03-21T00:51:18;11.57;;;4.53;;
20619;SDS011;10469;42.720;23.252;2023-03-21T00:53:50;11.93;;;4.80;;
20619;SDS011;10469;42.720;23.252;2023-03-21T00:56:20;10.60;;;5.25;;
20619;SDS011;10469;42.720;23.252;2023-03-21T00:58:46;10.27;;;4.78;;
20619;SDS011;10469;42.720;23.252;2023-03-21T01:01:11;8.15;;;4.10;;
20619;SDS011;10469;42.720;23.252;2023-03-21T01:03:37;5.40;;;3.88;;
20619;SDS011;10469;42.720;23.252;2023-03-21T01:06:09;7.88;;;4.30;;
20619;SDS011;10469;42.720;23.252;2023-03-21T01:08:41;8.15;;;4.70;;
20619;SDS011;10469;42.720;23.252;2023-03-21T01:11:09;8.07;;;4.18;;
20619;SDS011;10469;42.720;23.252;2023-03-21T01:13:37;8.00;;;4.35;;
20619;SDS011;10469;42.720;23.252;2023-03-21T01:16:03;13.80;;;5.85;;
20619;SDS011;10469;42.720;23.252;2023-03-21T01:18:31;8.20;;;3.33;;
20619;SDS011;10469;42.720;23.252;2023-03-21T01:20:58;7.45;;;4.28;;
20619;SDS011;10469;42.720;23.252;2023-03-21T01:23:26;12.00;;;4.88;;
20619;SDS011;10469;42.720;23.252;2023-03-21T01:25:52;5.97;;;3.85;;
20619;SDS011;10469;42.720;23.252;2023-03-21T01:28:19;5.45;;;3.85;;
20619;SDS011;10469;42.720;23.252;2023-03-21T01:30:45;7.22;;;4.57;;
20619;SDS011;10469;42.720;23.252;2023-03-21T01:33:13;7.45;;;4.68;;
20619;SDS011;10469;42.720;23.252;2023-03-21T01:35:39;8.80;;;4.25;;
20619;SDS011;10469;42.720;23.252;2023-03-21T01:38:05;8.85;;;3.88;;
20619;SDS011;10469;42.720;23.252;2023-03-21T01:40:30;6.70;;;4.40;;
20619;SDS011;10469;42.720;23.252;2023-03-21T01:42:56;3.90;;;3.33;;
20619;SDS011;10469;42.720;23.252;2023-03-21T01:48:24;9.38;;;3.92;;
20619;SDS011;10469;42.720;23.252;2023-03-21T01:50:53;7.55;;;4.35;;
20619;SDS011;10469;42.720;23.252;2023-03-21T01:53:21;4.97;;;3.50;;
20619;SDS011;10469;42.720;23.252;2023-03-21T01:55:53;5.57;;;3.55;;
20619;SDS011;10469;42.720;23.252;2023-03-21T01:58:25;7.35;;;3.67;;
20619;SDS011;10469;42.720;23.252;2023-03-21T02:00:51;7.03;;;4.13;;
20619;SDS011;10469;42.720;23.252;2023-03-21T02:03:19;5.70;;;4.13;;
20619;SDS011;10469;42.720;23.252;2023-03-21T02:05:53;10.65;;;4.07;;
20619;SDS011;10469;42.720;23.252;2023-03-21T02:08:24;7.38;;;3.97;;
20619;SDS011;10469;42.720;23.252;2023-03-21T02:10:50;4.75;;;3.35;;
20619;SDS011;10469;42.720;23.252;2023-03-21T02:13:16;9.13;;;3.92;;
20619;SDS011;10469;42.720;23.252;2023-03-21T02:15:44;7.10;;;3.70;;
20619;SDS011;10469;42.720;23.252;2023-03-21T02:18:21;7.38;;;4.07;;
20619;SDS011;10469;42.720;23.252;2023-03-21T02:24:06;7.15;;;3.35;;
20619;SDS011;10469;42.720;23.252;2023-03-21T02:38:02;6.75;;;3.30;;
20619;SDS011;10469;42.720;23.252;2023-03-21T02:40:43;6.30;;;3.92;;
20619;SDS011;10469;42.720;23.252;2023-03-21T02:43:15;5.93;;;2.63;;
20619;SDS011;10469;42.720;23.252;2023-03-21T02:48:21;5.70;;;3.42;;
20619;SDS011;10469;42.720;23.252;2023-03-21T02:50:57;3.88;;;3.47;;
20619;SDS011;10469;42.720;23.252;2023-03-21T02:53:26;4.90;;;3.65;;
20619;SDS011;10469;42.720;23.252;2023-03-21T02:55:55;7.75;;;3.28;;
20619;SDS011;10469;42.720;23.252;2023-03-21T02:58:23;4.38;;;3.50;;
20619;SDS011;10469;42.720;23.252;2023-03-21T03:00:52;5.03;;;3.40;;
20619;SDS011;10469;42.720;23.252;2023-03-21T03:03:20;3.92;;;3.13;;
20619;SDS011;10469;42.720;23.252;2023-03-21T03:05:49;6.45;;;3.28;;
20619;SDS011;10469;42.720;23.252;2023-03-21T03:08:36;12.00;;;4.20;;
20619;SDS011;10469;42.720;23.252;2023-03-21T03:11:30;7.47;;;3.88;;
20619;SDS011;10469;42.720;23.252;2023-03-21T03:14:07;7.65;;;4.57;;
20619;SDS011;10469;42.720;23.252;2023-03-21T03:19:17;4.28;;;3.28;;
20619;SDS011;10469;42.720;23.252;2023-03-21T03:27:23;7.10;;;3.85;;
20619;SDS011;10469;42.720;23.252;2023-03-21T03:29:56;6.05;;;3.33;;
20619;SDS011;10469;42.720;23.252;2023-03-21T03:32:25;9.63;;;3.38;;
20619;SDS011;10469;42.720;23.252;2023-03-21T03:34:55;6.78;;;3.60;;
20619;SDS011;10469;42.720;23.252;2023-03-21T03:37:23;4.65;;;3.42;;
20619;SDS011;10469;42.720;23.252;2023-03-21T03:39:54;9.15;;;3.83;;
20619;SDS011;10469;42.720;23.252;2023-03-21T03:42:30;4.97;;;3.40;;
20619;SDS011;10469;42.720;23.252;2023-03-21T03:45:00;6.97;;;3.53;;
20619;SDS011;10469;42.720;23.252;2023-03-21T03:50:04;5.60;;;3.20;;
20619;SDS011;10469;42.720;23.252;2023-03-21T03:52:37;5.25;;;2.97;;
20619;SDS011;10469;42.720;23.252;2023-03-21T03:55:08;3.47;;;2.40;;
20619;SDS011;10469;42.720;23.252;2023-03-21T03:57:37;6.90;;;2.75;;
20619;SDS011;10469;42.720;23.252;2023-03-21T04:00:04;4.97;;;3.00;;
20619;SDS011;10469;42.720;23.252;2023-03-21T04:02:36;3.63;;;2.72;;
20619;SDS011;10469;42.720;23.252;2023-03-21T04:05:01;4.38;;;3.13;;
20619;SDS011;10469;42.720;23.252;2023-03-21T04:07:28;13.85;;;4.18;;
20619;SDS011;10469;42.720;23.252;2023-03-21T04:09:54;4.70;;;3.60;;
20619;SDS011;10469;42.720;23.252;2023-03-21T04:12:20;3.70;;;2.65;;
20619;SDS011;10469;42.720;23.252;2023-03-21T04:14:45;5.00;;;3.00;;
20619;SDS011;10469;42.720;23.252;2023-03-21T04:17:11;4.20;;;2.83;;
20619;SDS011;10469;42.720;23.252;2023-03-21T04:19:36;5.28;;;2.90;;
20619;SDS011;10469;42.720;23.252;2023-03-21T04:22:02;9.85;;;3.33;;
20619;SDS011;10469;42.720;23.252;2023-03-21T04:24:27;3.45;;;2.70;;
20619;SDS011;10469;42.720;23.252;2023-03-21T04:26:57;3.33;;;2.88;;
20619;SDS011;10469;42.720;23.252;2023-03-21T04:29:22;3.72;;;2.35;;
20619;SDS011;10469;42.720;23.252;2023-03-21T04:31:48;4.28;;;2.88;;
20619;SDS011;10469;42.720;23.252;2023-03-21T04:34:13;5.43;;;3.25;;
20619;SDS011;10469;42.720;23.252;2023-03-21T04:36:39;13.35;;;3.70;;
20619;SDS011;10469;42.720;23.252;2023-03-21T04:39:09;6.63;;;3.15;;
20619;SDS011;10469;42.720;23.252;2023-03-21T04:41:41;6.85;;;3.10;;
20619;SDS011;10469;42.720;23.252;2023-03-21T04:44:09;8.88;;;3.75;;
20619;SDS011;10469;42.720;23.252;2023-03-21T04:46:36;7.07;;;3.25;;
20619;SDS011;10469;42.720;23.252;2023-03-21T04:49:02;5.57;;;3.15;;
20619;SDS011;10469;42.720;23.252;2023-03-21T04:51:28;4.60;;;2.88;;
20619;SDS011;10469;42.720;23.252;2023-03-21T04:53:54;5.20;;;2.78;;
20619;SDS011;10469;42.720;23.252;2023-03-21T04:56:24;5.15;;;3.00;;
20619;SDS011;10469;42.720;23.252;2023-03-21T04:58:56;5.40;;;3.95;;
20619;SDS011;10469;42.720;23.252;2023-03-21T05:01:23;7.70;;;3.58;;
20619;SDS011;10469;42.720;23.252;2023-03-21T05:03:49;4.60;;;2.75;;
20619;SDS011;10469;42.720;23.252;2023-03-21T05:06:16;8.57;;;3.40;;
20619;SDS011;10469;42.720;23.252;2023-03-21T05:08:42;8.57;;;3.40;;
20619;SDS011;10469;42.720;23.252;2023-03-21T05:11:07;3.88;;;3.17;;
20619;SDS011;10469;42.720;23.252;2023-03-21T05:13:33;4.45;;;2.63;;
20619;SDS011;10469;42.720;23.252;2023-03-21T05:15:58;7.35;;;3.45;;
20619;SDS011;10469;42.720;23.252;2023-03-21T05:18:24;5.63;;;4.03;;
20619;SDS011;10469;42.720;23.252;2023-03-21T05:20:50;4.20;;;3.22;;
20619;SDS011;10469;42.720;23.252;2023-03-21T05:23:20;6.93;;;4.20;;
20619;SDS011;10469;42.720;23.252;2023-03-21T05:25:47;8.82;;;4.25;;
20619;SDS011;10469;42.720;23.252;2023-03-21T05:28:13;5.75;;;3.40;;
20619;SDS011;10469;42.720;23.252;2023-03-21T05:30:42;5.53;;;2.97;;
20619;SDS011;10469;42.720;23.252;2023-03-21T05:33:08;6.55;;;3.40;;
20619;SDS011;10469;42.720;23.252;2023-03-21T05:35:34;7.47;;;3.17;;
20619;SDS011;10469;42.720;23.252;2023-03-21T05:37:59;5.57;;;3.88;;
20619;SDS011;10469;42.720;23.252;2023-03-21T05:40:25;5.00;;;3.00;;
20619;SDS011;10469;42.720;23.252;2023-03-21T05:42:51;6.00;;;3.42;;
20619;SDS011;10469;42.720;23.252;2023-03-21T05:45:16;3.85;;;2.75;;
20619;SDS011;10469;42.720;23.252;2023-03-21T05:47:42;2.60;;;2.35;;
20619;SDS011;10469;42.720;23.252;2023-03-21T05:50:08;3.22;;;2.33;;
20619;SDS011;10469;42.720;23.252;2023-03-21T05:52:35;5.72;;;2.95;;
20619;SDS011;10469;42.720;23.252;2023-03-21T05:55:01;5.57;;;3.33;;
20619;SDS011;10469;42.720;23.252;2023-03-21T05:57:27;5.03;;;3.15;;
20619;SDS011;10469;42.720;23.252;2023-03-21T05:59:53;5.00;;;2.90;;
20619;SDS011;10469;42.720;23.252;2023-03-21T06:02:19;4.43;;;3.47;;
20619;SDS011;10469;42.720;23.252;2023-03-21T06:04:44;5.70;;;3.00;;
20619;SDS011;10469;42.720;23.252;2023-03-21T06:07:10;5.65;;;4.03;;
20619;SDS011;10469;42.720;23.252;2023-03-21T06:09:36;4.82;;;3.60;;
20619;SDS011;10469;42.720;23.252;2023-03-21T06:12:01;5.88;;;4.10;;
20619;SDS011;10469;42.720;23.252;2023-03-21T06:14:27;5.35;;;3.70;;
20619;SDS011;10469;42.720;23.252;2023-03-21T06:16:52;7.40;;;3.95;;
20619;SDS011;10469;42.720;23.252;2023-03-21T06:19:18;7.75;;;4.25;;
20619;SDS011;10469;42.720;23.252;2023-03-21T06:21:45;9.88;;;4.15;;
20619;SDS011;10469;42.720;23.252;2023-03-21T06:24:11;5.80;;;3.95;;
20619;SDS011;10469;42.720;23.252;2023-03-21T06:26:37;17.85;;;5.45;;
20619;SDS011;10469;42.720;23.252;2023-03-21T06:29:03;4.90;;;3.70;;
20619;SDS011;10469;42.720;23.252;2023-03-21T06:31:28;8.52;;;4.63;;
20619;SDS011;10469;42.720;23.252;2023-03-21T06:33:54;13.20;;;5.40;;
20619;SDS011;10469;42.720;23.252;2023-03-21T06:36:20;9.13;;;5.07;;
20619;SDS011;10469;42.720;23.252;2023-03-21T06:38:45;7.32;;;4.97;;
20619;SDS011;10469;42.720;23.252;2023-03-21T06:41:12;14.35;;;6.45;;
20619;SDS011;10469;42.720;23.252;2023-03-21T06:43:39;12.60;;;5.70;;
20619;SDS011;10469;42.720;23.252;2023-03-21T06:46:04;24.80;;;8.23;;
20619;SDS011;10469;42.720;23.252;2023-03-21T06:48:30;19.33;;;8.05;;
20619;SDS011;10469;42.720;23.252;2023-03-21T06:50:56;12.50;;;6.32;;
20619;SDS011;10469;42.720;23.252;2023-03-21T06:53:22;9.57;;;6.32;;
20619;SDS011;10469;42.720;23.252;2023-03-21T06:55:52;16.75;;;7.47;;
20619;SDS011;10469;42.720;23.252;2023-03-21T06:58:19;12.68;;;5.72;;
20619;SDS011;10469;42.720;23.252;2023-03-21T07:00:45;16.52;;;6.93;;
20619;SDS011;10469;42.720;23.252;2023-03-21T07:03:11;12.43;;;5.18;;
20619;SDS011;10469;42.720;23.252;2023-03-21T07:05:37;9.00;;;5.32;;
20619;SDS011;10469;42.720;23.252;2023-03-21T07:08:04;14.05;;;6.40;;
20619;SDS011;10469;42.720;23.252;2023-03-21T07:10:30;16.67;;;6.68;;
20619;SDS011;10469;42.720;23.252;2023-03-21T07:12:58;8.35;;;5.25;;
20619;SDS011;10469;42.720;23.252;2023-03-21T07:15:24;10.07;;;4.35;;
20619;SDS011;10469;42.720;23.252;2023-03-21T07:17:50;8.18;;;4.80;;
20619;SDS011;10469;42.720;23.252;2023-03-21T07:20:15;9.77;;;4.20;;
20619;SDS011;10469;42.720;23.252;2023-03-21T07:22:41;7.95;;;4.95;;
20619;SDS011;10469;42.720;23.252;2023-03-21T07:25:07;9.43;;;4.85;;
20619;SDS011;10469;42.720;23.252;2023-03-21T07:27:33;5.47;;;4.07;;
20619;SDS011;10469;42.720;23.252;2023-03-21T07:30:00;6.13;;;4.05;;
20619;SDS011;10469;42.720;23.252;2023-03-21T07:32:25;6.13;;;4.03;;
20619;SDS011;10469;42.720;23.252;2023-03-21T07:34:53;6.40;;;3.75;;
20619;SDS011;10469;42.720;23.252;2023-03-21T07:37:19;10.82;;;4.47;;
20619;SDS011;10469;42.720;23.252;2023-03-21T07:39:45;13.93;;;4.97;;
20619;SDS011;10469;42.720;23.252;2023-03-21T07:42:11;10.63;;;3.85;;
20619;SDS011;10469;42.720;23.252;2023-03-21T07:44:36;13.10;;;4.47;;
20619;SDS011;10469;42.720;23.252;2023-03-21T07:47:03;8.10;;;4.53;;
20619;SDS011;10469;42.720;23.252;2023-03-21T07:49:30;12.60;;;4.63;;
20619;SDS011;10469;42.720;23.252;2023-03-21T07:51:55;6.68;;;3.92;;
20619;SDS011;10469;42.720;23.252;2023-03-21T07:54:21;8.77;;;4.30;;
20619;SDS011;10469;42.720;23.252;2023-03-21T07:56:47;8.20;;;4.03;;
20619;SDS011;10469;42.720;23.252;2023-03-21T07:59:13;12.63;;;4.40;;
20619;SDS011;10469;42.720;23.252;2023-03-21T08:01:39;6.70;;;4.68;;
20619;SDS011;10469;42.720;23.252;2023-03-21T08:04:04;13.18;;;4.18;;
20619;SDS011;10469;42.720;23.252;2023-03-21T08:06:30;6.88;;;4.53;;
20619;SDS011;10469;42.720;23.252;2023-03-21T08:08:57;14.45;;;4.55;;
20619;SDS011;10469;42.720;23.252;2023-03-21T08:11:23;7.88;;;4.85;;
20619;SDS011;10469;42.720;23.252;2023-03-21T08:13:49;6.07;;;3.72;;
20619;SDS011;10469;42.720;23.252;2023-03-21T08:16:15;7.18;;;4.22;;
20619;SDS011;10469;42.720;23.252;2023-03-21T08:18:41;8.57;;;3.95;;
20619;SDS011;10469;42.720;23.252;2023-03-21T08:21:07;8.40;;;4.03;;
20619;SDS011;10469;42.720;23.252;2023-03-21T08:23:32;5.13;;;3.55;;
20619;SDS011;10469;42.720;23.252;2023-03-21T08:25:59;8.45;;;3.67;;
20619;SDS011;10469;42.720;23.252;2023-03-21T08:28:25;4.40;;;3.67;;
20619;SDS011;10469;42.720;23.252;2023-03-21T08:30:51;7.75;;;4.22;;
20619;SDS011;10469;42.720;23.252;2023-03-21T08:33:17;5.60;;;3.83;;
20619;SDS011;10469;42.720;23.252;2023-03-21T08:35:42;7.15;;;4.18;;
20619;SDS011;10469;42.720;23.252;2023-03-21T08:38:08;6.40;;;3.63;;
20619;SDS011;10469;42.720;23.252;2023-03-21T08:40:34;6.38;;;3.33;;
20619;SDS011;10469;42.720;23.252;2023-03-21T08:43:00;4.78;;;3.28;;
20619;SDS011;10469;42.720;23.252;2023-03-21T08:45:25;7.18;;;4.10;;
20619;SDS011;10469;42.720;23.252;2023-03-21T08:47:51;6.68;;;4.15;;
20619;SDS011;10469;42.720;23.252;2023-03-21T08:50:19;5.35;;;3.53;;
20619;SDS011;10469;42.720;23.252;2023-03-21T08:52:47;5.00;;;3.55;;
20619;SDS011;10469;42.720;23.252;2023-03-21T08:55:13;6.85;;;3.85;;
20619;SDS011;10469;42.720;23.252;2023-03-21T08:57:41;7.95;;;3.85;;
20619;SDS011;10469;42.720;23.252;2023-03-21T09:00:08;9.05;;;4.75;;
20619;SDS011;10469;42.720;23.252;2023-03-21T09:02:41;7.57;;;3.70;;
20619;SDS011;10469;42.720;23.252;2023-03-21T09:05:11;5.93;;;4.20;;
20619;SDS011;10469;42.720;23.252;2023-03-21T09:07:40;7.43;;;3.85;;
20619;SDS011;10469;42.720;23.252;2023-03-21T09:10:07;6.13;;;3.70;;
20619;SDS011;10469;42.720;23.252;2023-03-21T09:12:35;6.53;;;3.67;;
20619;SDS011;10469;42.720;23.252;2023-03-21T09:15:01;9.77;;;4.15;;
20619;SDS011;10469;42.720;23.252;2023-03-21T09:17:28;6.57;;;4.22;;
20619;SDS011;10469;42.720;23.252;2023-03-21T09:19:55;6.00;;;3.90;;
20619;SDS011;10469;42.720;23.252;2023-03-21T09:22:24;7.30;;;2.95;;
20619;SDS011;10469;42.720;23.252;2023-03-21T09:24:51;6.95;;;4.07;;
20619;SDS011;10469;42.720;23.252;2023-03-21T09:27:17;6.35;;;3.60;;
20619;SDS011;10469;42.720;23.252;2023-03-21T09:29:50;3.50;;;3.20;;
20619;SDS011;10469;42.720;23.252;2023-03-21T09:32:17;5.20;;;3.05;;
20619;SDS011;10469;42.720;23.252;2023-03-21T09:34:43;6.47;;;3.25;;
20619;SDS011;10469;42.720;23.252;2023-03-21T09:37:09;6.85;;;3.55;;
20619;SDS011;10469;42.720;23.252;2023-03-21T09:39:37;5.97;;;3.75;;
20619;SDS011;10469;42.720;23.252;2023-03-21T09:42:16;7.50;;;3.97;;
20619;SDS011;10469;42.720;23.252;2023-03-21T09:45:19;4.32;;;3.22;;
20619;SDS011;10469;42.720;23.252;2023-03-21T09:47:41;9.18;;;3.95;;
20619;SDS011;10469;42.720;23.252;2023-03-21T09:52:52;7.35;;;3.22;;
20619;SDS011;10469;42.720;23.252;2023-03-21T09:55:34;6.68;;;3.78;;
20619;SDS011;10469;42.720;23.252;2023-03-21T10:00:50;8.48;;;2.85;;
20619;SDS011;10469;42.720;23.252;2023-03-21T10:03:24;4.93;;;3.28;;
20619;SDS011;10469;42.720;23.252;2023-03-21T10:05:56;5.35;;;3.63;;
20619;SDS011;10469;42.720;23.252;2023-03-21T10:08:26;5.18;;;3.63;;
20619;SDS011;10469;42.720;23.252;2023-03-21T10:11:12;6.25;;;3.25;;
20619;SDS011;10469;42.720;23.252;2023-03-21T10:13:40;5.20;;;3.60;;
20619;SDS011;10469;42.720;23.252;2023-03-21T10:16:15;5.97;;;3.97;;
20619;SDS011;10469;42.720;23.252;2023-03-21T10:19:03;4.90;;;3.28;;
20619;SDS011;10469;42.720;23.252;2023-03-21T10:21:34;5.63;;;3.45;;
20619;SDS011;10469;42.720;23.252;2023-03-21T10:24:03;7.80;;;4.85;;
20619;SDS011;10469;42.720;23.252;2023-03-21T10:26:29;7.15;;;3.70;;
20619;SDS011;10469;42.720;23.252;2023-03-21T10:28:56;5.03;;;3.38;;
20619;SDS011;10469;42.720;23.252;2023-03-21T10:31:26;5.40;;;3.13;;
20619;SDS011;10469;42.720;23.252;2023-03-21T10:33:55;5.00;;;3.55;;
20619;SDS011;10469;42.720;23.252;2023-03-21T10:36:26;7.90;;;3.88;;
20619;SDS011;10469;42.720;23.252;2023-03-21T10:39:02;7.03;;;3.85;;
20619;SDS011;10469;42.720;23.252;2023-03-21T10:41:31;5.57;;;4.20;;
20619;SDS011;10469;42.720;23.252;2023-03-21T10:44:11;7.10;;;3.92;;
20619;SDS011;10469;42.720;23.252;2023-03-21T10:46:53;5.47;;;3.22;;
20619;SDS011;10469;42.720;23.252;2023-03-21T10:49:42;5.40;;;3.97;;
20619;SDS011;10469;42.720;23.252;2023-03-21T10:52:11;5.80;;;3.60;;
20619;SDS011;10469;42.720;23.252;2023-03-21T10:54:39;6.43;;;3.90;;
20619;SDS011;10469;42.720;23.252;2023-03-21T10:57:06;7.15;;;4.13;;
20619;SDS011;10469;42.720;23.252;2023-03-21T10:59:57;8.68;;;3.90;;
20619;SDS011;10469;42.720;23.252;2023-03-21T11:02:36;5.82;;;4.03;;
20619;SDS011;10469;42.720;23.252;2023-03-21T11:05:03;4.22;;;2.90;;
20619;SDS011;10469;42.720;23.252;2023-03-21T11:07:30;5.18;;;2.63;;
20619;SDS011;10469;42.720;23.252;2023-03-21T11:09:57;5.20;;;2.88;;
20619;SDS011;10469;42.720;23.252;2023-03-21T11:14:54;4.15;;;3.22;;
20619;SDS011;10469;42.720;23.252;2023-03-21T11:17:28;5.43;;;3.17;;
20619;SDS011;10469;42.720;23.252;2023-03-21T11:20:00;3.97;;;3.25;;
20619;SDS011;10469;42.720;23.252;2023-03-21T11:22:38;4.88;;;3.45;;
20619;SDS011;10469;42.720;23.252;2023-03-21T11:25:07;6.15;;;3.35;;
20619;SDS011;10469;42.720;23.252;2023-03-21T11:27:49;3.53;;;2.85;;
20619;SDS011;10469;42.720;23.252;2023-03-21T11:30:19;5.18;;;3.20;;
20619;SDS011;10469;42.720;23.252;2023-03-21T11:32:49;7.50;;;3.83;;
20619;SDS011;10469;42.720;23.252;2023-03-21T11:35:23;4.00;;;2.90;;
20619;SDS011;10469;42.720;23.252;2023-03-21T11:37:53;6.72;;;3.45;;
20619;SDS011;10469;42.720;23.252;2023-03-21T11:40:21;6.45;;;3.42;;
20619;SDS011;10469;42.720;23.252;2023-03-21T11:42:53;5.60;;;3.50;;
20619;SDS011;10469;42.720;23.252;2023-03-21T11:45:24;4.55;;;3.03;;
20619;SDS011;10469;42.720;23.252;2023-03-21T11:47:58;5.07;;;3.45;;
20619;SDS011;10469;42.720;23.252;2023-03-21T11:50:33;3.45;;;2.78;;
20619;SDS011;10469;42.720;23.252;2023-03-21T11:53:22;5.82;;;3.58;;
20619;SDS011;10469;42.720;23.252;2023-03-21T11:56:35;3.63;;;2.63;;
20619;SDS011;10469;42.720;23.252;2023-03-21T11:58:46;2.75;;;2.33;;
20619;SDS011;10469;42.720;23.252;2023-03-21T12:04:50;3.58;;;2.63;;
20619;SDS011;10469;42.720;23.252;2023-03-21T12:10:20;3.88;;;2.67;;
20619;SDS011;10469;42.720;23.252;2023-03-21T12:15:44;4.25;;;2.90;;
20619;SDS011;10469;42.720;23.252;2023-03-21T12:26:30;5.78;;;2.45;;
20619;SDS011;10469;42.720;23.252;2023-03-21T12:32:00;3.42;;;2.00;;
20619;SDS011;10469;42.720;23.252;2023-03-21T12:39:49;2.85;;;2.38;;
20619;SDS011;10469;42.720;23.252;2023-03-21T12:51:06;3.08;;;2.22;;
20619;SDS011;10469;42.720;23.252;2023-03-21T12:56:39;4.55;;;2.30;;
20619;SDS011;10469;42.720;23.252;2023-03-21T13:01:45;3.40;;;2.40;;
20619;SDS011;10469;42.720;23.252;2023-03-21T13:04:30;3.90;;;2.78;;
20619;SDS011;10469;42.720;23.252;2023-03-21T13:07:02;3.30;;;2.38;;
20619;SDS011;10469;42.720;23.252;2023-03-21T13:09:34;4.13;;;2.90;;
20619;SDS011;10469;42.720;23.252;2023-03-21T13:14:54;5.60;;;2.75;;
20619;SDS011;10469;42.720;23.252;2023-03-21T13:17:45;2.35;;;1.90;;
20619;SDS011;10469;42.720;23.252;2023-03-21T13:22:51;4.15;;;2.72;;
20619;SDS011;10469;42.720;23.252;2023-03-21T13:27:50;3.78;;;2.55;;
20619;SDS011;10469;42.720;23.252;2023-03-21T13:30:27;3.92;;;2.28;;
20619;SDS011;10469;42.720;23.252;2023-03-21T13:33:01;5.93;;;2.97;;
20619;SDS011;10469;42.720;23.252;2023-03-21T13:35:34;3.15;;;2.20;;
20619;SDS011;10469;42.720;23.252;2023-03-21T13:38:04;5.18;;;1.92;;
20619;SDS011;10469;42.720;23.252;2023-03-21T13:40:58;3.55;;;2.20;;
20619;SDS011;10469;42.720;23.252;2023-03-21T13:46:07;2.63;;;2.05;;
20619;SDS011;10469;42.720;23.252;2023-03-21T13:56:59;2.40;;;2.20;;
20619;SDS011;10469;42.720;23.252;2023-03-21T13:59:42;3.97;;;2.90;;
20619;SDS011;10469;42.720;23.252;2023-03-21T14:04:38;2.33;;;2.13;;
20619;SDS011;10469;42.720;23.252;2023-03-21T14:07:12;4.00;;;2.42;;
20619;SDS011;10469;42.720;23.252;2023-03-21T14:09:48;3.45;;;2.20;;
20619;SDS011;10469;42.720;23.252;2023-03-21T14:12:17;2.33;;;2.08;;
20619;SDS011;10469;42.720;23.252;2023-03-21T14:15:00;4.93;;;2.20;;
20619;SDS011;10469;42.720;23.252;2023-03-21T14:17:33;5.38;;;2.55;;
20619;SDS011;10469;42.720;23.252;2023-03-21T14:20:10;3.10;;;2.47;;
20619;SDS011;10469;42.720;23.252;2023-03-21T14:22:40;4.82;;;3.38;;
20619;SDS011;10469;42.720;23.252;2023-03-21T14:25:07;6.75;;;2.67;;
20619;SDS011;10469;42.720;23.252;2023-03-21T14:27:37;2.63;;;2.03;;
20619;SDS011;10469;42.720;23.252;2023-03-21T14:30:48;2.53;;;2.00;;
20619;SDS011;10469;42.720;23.252;2023-03-21T14:35:42;4.03;;;2.08;;
20619;SDS011;10469;42.720;23.252;2023-03-21T14:38:21;4.63;;;2.50;;
20619;SDS011;10469;42.720;23.252;2023-03-21T14:40:50;2.72;;;2.13;;
20619;SDS011;10469;42.720;23.252;2023-03-21T14:43:17;4.20;;;2.20;;
20619;SDS011;10469;42.720;23.252;2023-03-21T14:45:46;3.05;;;2.30;;
20619;SDS011;10469;42.720;23.252;2023-03-21T14:48:13;2.55;;;1.85;;
20619;SDS011;10469;42.720;23.252;2023-03-21T14:53:17;4.72;;;2.67;;
20619;SDS011;10469;42.720;23.252;2023-03-21T14:55:56;3.60;;;2.85;;
20619;SDS011;10469;42.720;23.252;2023-03-21T14:58:24;3.63;;;1.92;;
20619;SDS011;10469;42.720;23.252;2023-03-21T15:00:52;2.60;;;2.20;;
20619;SDS011;10469;42.720;23.252;2023-03-21T15:03:21;3.83;;;2.25;;
20619;SDS011;10469;42.720;23.252;2023-03-21T15:05:48;4.35;;;2.63;;
20619;SDS011;10469;42.720;23.252;2023-03-21T15:08:15;1.98;;;1.88;;
20619;SDS011;10469;42.720;23.252;2023-03-21T15:11:01;6.70;;;2.45;;
20619;SDS011;10469;42.720;23.252;2023-03-21T15:16:05;2.85;;;2.00;;
20619;SDS011;10469;42.720;23.252;2023-03-21T15:18:33;4.28;;;2.88;;
20619;SDS011;10469;42.720;23.252;2023-03-21T15:21:06;5.03;;;2.88;;
20619;SDS011;10469;42.720;23.252;2023-03-21T15:23:37;4.82;;;2.92;;
20619;SDS011;10469;42.720;23.252;2023-03-21T15:26:13;4.47;;;2.45;;
20619;SDS011;10469;42.720;23.252;2023-03-21T15:28:41;4.15;;;2.13;;
20619;SDS011;10469;42.720;23.252;2023-03-21T15:31:16;2.65;;;2.45;;
20619;SDS011;10469;42.720;23.252;2023-03-21T15:33:47;2.53;;;1.92;;
20619;SDS011;10469;42.720;23.252;2023-03-21T15:36:25;4.53;;;2.50;;
20619;SDS011;10469;42.720;23.252;2023-03-21T15:39:05;4.43;;;2.08;;
20619;SDS011;10469;42.720;23.252;2023-03-21T15:41:32;3.58;;;2.40;;
20619;SDS011;10469;42.720;23.252;2023-03-21T15:46:44;3.25;;;2.38;;
20619;SDS011;10469;42.720;23.252;2023-03-21T15:52:05;2.47;;;2.25;;
20619;SDS011;10469;42.720;23.252;2023-03-21T15:54:42;3.55;;;2.80;;
20619;SDS011;10469;42.720;23.252;2023-03-21T15:57:27;2.80;;;2.25;;
20619;SDS011;10469;42.720;23.252;2023-03-21T16:00:16;4.45;;;3.10;;
20619;SDS011;10469;42.720;23.252;2023-03-21T16:02:47;4.35;;;3.00;;
20619;SDS011;10469;42.720;23.252;2023-03-21T16:05:27;3.47;;;2.47;;
20619;SDS011;10469;42.720;23.252;2023-03-21T16:08:19;2.88;;;2.10;;
20619;SDS011;10469;42.720;23.252;2023-03-21T16:10:45;4.00;;;2.47;;
20619;SDS011;10469;42.720;23.252;2023-03-21T16:13:12;6.38;;;2.97;;
20619;SDS011;10469;42.720;23.252;2023-03-21T16:15:38;6.70;;;3.58;;
20619;SDS011;10469;42.720;23.252;2023-03-21T16:18:05;3.47;;;3.17;;
20619;SDS011;10469;42.720;23.252;2023-03-21T16:20:37;7.15;;;2.75;;
20619;SDS011;10469;42.720;23.252;2023-03-21T16:23:05;4.30;;;3.05;;
20619;SDS011;10469;42.720;23.252;2023-03-21T16:25:31;10.18;;;2.90;;
20619;SDS011;10469;42.720;23.252;2023-03-21T16:27:59;9.20;;;3.30;;
20619;SDS011;10469;42.720;23.252;2023-03-21T16:30:25;5.45;;;3.60;;
20619;SDS011;10469;42.720;23.252;2023-03-21T16:32:51;6.18;;;3.47;;
20619;SDS011;10469;42.720;23.252;2023-03-21T16:35:17;2.95;;;2.63;;
20619;SDS011;10469;42.720;23.252;2023-03-21T16:37:44;4.20;;;2.50;;
20619;SDS011;10469;42.720;23.252;2023-03-21T16:42:53;6.00;;;2.70;;